Flight Track Log - Related Links

Times and Time Zones

All times are in EDT time to prevent confusion due to time zone crossing. See the ASQ6041 flight status page for this flight to view local times or setup timezone preferences in your user account.

Time Position Orientation Groundspeed Altitude Reporting Facility
EDT Latitude Longitude Course Direction KTS MPH feet Rate Location/Type
Mon 01:45:04 PM 39.9167 -104.7000 251° West 202 232 7,300  Level Denver TRACON
Mon 01:45:58 PM 39.9667 -104.7333 333° Northwest 243 280 9,700 2,474 Climbing Denver TRACON
Mon 01:46:58 PM 39.9667 -104.8167 270° West 261 300 12,000 2,133 Climbing Denver TRACON
Mon 01:47:00 PM 39.7514 -104.9953 249° West  Level FlightAware Approximate
Mon 01:48:00 PM 39.7157 -105.1032 247° West  Level FlightAware Approximate
Mon 01:48:13 PM 39.9122 -104.9217 236° Southwest 291 335 14,500  Level Denver Center
Mon 01:49:00 PM 39.6783 -105.2100 237° Southwest  Level FlightAware Approximate
Mon 01:49:15 PM 39.8553 -105.0333 236° Southwest 348 400 15,500  Level Denver Center
Mon 01:50:00 PM 39.6375 -105.3137 251° West  Level FlightAware Approximate
Mon 01:50:17 PM 39.7958 -105.1489 236° Southwest 386 444 16,700  Level Denver Center
Mon 01:51:19 PM 39.7303 -105.2756 236° Southwest 392 451 18,400 1,632 Climbing Denver Center
Mon 01:52:33 PM 39.6714 -105.3919 237° Southwest 385 443 20,400 1,445 Climbing Denver Center
Mon 01:53:36 PM 39.5944 -105.5378 236° Southwest 398 458 21,700 1,344 Climbing Denver Center
Mon 01:54:38 PM 39.5350 -105.6753 241° Southwest 404 465 23,200 1,113 Climbing Denver Center
Mon 01:55:40 PM 39.4972 -105.8144 251° West 408 470 24,000 387 Climbing Denver Center
Mon 01:56:42 PM 39.4558 -105.9719 251° West 430 495 24,000  Level Denver Center
Mon 01:57:44 PM 39.4114 -106.1244 249° West 451 519 24,000 -387 Level Denver Center
Mon 01:58:46 PM 39.3297 -106.2431 228° Southwest 449 517 23,200 -1,161 Descending Denver Center
Mon 01:59:48 PM 39.2350 -106.3319 216° Southwest 440 506 21,600 -2,032 Descending Denver Center
Mon 02:00:50 PM 39.1442 -106.4156 216° Southwest 420 483 19,000 -2,226 Descending Denver Center
Mon 02:01:52 PM 39.0519 -106.4886 212° Southwest 396 456 17,000 -1,008 Descending Denver Center
Mon 02:02:55 PM 38.9550 -106.5556 208° Southwest 353 406 16,900 -48 Descending Denver Center
Mon 02:03:57 PM 38.8908 -106.6422 226° Southwest 347 399 16,900 -435 Level Denver Center
Mon 02:04:59 PM 38.8158 -106.7144 217° Southwest 338 389 16,000 -484 Descending Denver Center
Mon 02:06:01 PM 38.7417 -106.7792 214° Southwest 329 379 15,900 -629 Descending Denver Center
Mon 02:07:03 PM 38.6636 -106.8506 216° Southwest 317 365 14,700 -1,161 Descending Denver Center

Login

Don't have an account? Register now (free) for customized features, flight alerts, and more!